createdAt,value
2019-05-01T00:02:24.304Z,94.53
2019-05-01T00:05:16.844Z,94.33
2019-05-01T00:07:54.238Z,94.20
2019-05-01T00:10:25.956Z,93.86
2019-05-01T00:12:56.749Z,93.81
2019-05-01T00:15:32.654Z,94.07
2019-05-01T00:18:07.572Z,93.84
2019-05-01T00:20:38.326Z,93.76
2019-05-01T00:23:09.018Z,93.72
2019-05-01T00:25:44.855Z,93.45
2019-05-01T00:28:18.786Z,93.97
2019-05-01T00:30:52.625Z,94.79
2019-05-01T00:33:25.519Z,95.04
2019-05-01T00:35:56.175Z,94.90
2019-05-01T00:38:33.974Z,94.82
2019-05-01T00:41:06.640Z,94.68
2019-05-01T00:43:37.432Z,94.38
2019-05-01T00:46:10.205Z,94.78
2019-05-01T00:48:42.242Z,95.22
2019-05-01T00:51:20.257Z,95.06
2019-05-01T00:53:51.019Z,95.90
2019-05-01T00:56:40.615Z,95.84
2019-05-01T00:59:30.164Z,95.02
2019-05-01T01:02:19.776Z,95.41
2019-05-01T01:04:55.227Z,95.18
2019-05-01T01:07:26.037Z,96.00
2019-05-01T01:10:04.373Z,96.24
2019-05-01T01:12:34.994Z,96.33
2019-05-01T01:15:06.549Z,96.15
2019-05-01T01:17:38.512Z,95.66
2019-05-01T01:20:09.395Z,95.66
2019-05-01T01:22:45.306Z,95.85
2019-05-01T01:25:26.498Z,95.84
2019-05-01T01:27:56.991Z,97.11
2019-05-01T01:30:27.983Z,96.86
2019-05-01T01:32:58.834Z,97.04
2019-05-01T01:35:29.625Z,97.21
2019-05-01T01:38:00.228Z,96.55
2019-05-01T01:40:33.229Z,96.32
2019-05-01T01:43:21.644Z,95.99
2019-05-01T01:45:54.336Z,96.45
2019-05-01T01:48:26.304Z,97.32
2019-05-01T01:50:57.412Z,96.95
2019-05-01T01:53:28.269Z,96.41
2019-05-01T01:56:02.277Z,96.72
2019-05-01T01:58:34.167Z,97.14
2019-05-01T02:01:26.961Z,97.23
2019-05-01T02:04:02.912Z,96.97
2019-05-01T02:06:38.697Z,96.77
2019-05-01T02:09:11.111Z,97.39
2019-05-01T02:11:42.004Z,97.29
2019-05-01T02:14:14.672Z,96.58
2019-05-01T02:16:48.835Z,97.09
2019-05-01T02:19:19.683Z,97.50
2019-05-01T02:21:51.623Z,97.25
2019-05-01T02:24:22.369Z,97.39
2019-05-01T02:26:57.073Z,97.02
2019-05-01T02:29:38.217Z,97.36
2019-05-01T02:32:09.324Z,97.03
2019-05-01T02:34:47.841Z,97.80
2019-05-01T02:37:20.370Z,97.92
2019-05-01T02:39:54.569Z,97.40
2019-05-01T02:42:30.108Z,97.78
2019-05-01T02:45:04.386Z,97.69
2019-05-01T02:47:39.213Z,97.60
2019-05-01T02:50:13.584Z,97.93
2019-05-01T02:52:46.450Z,98.32
2019-05-01T02:55:41.986Z,98.44
2019-05-01T02:58:13.745Z,97.79
2019-05-01T03:00:46.360Z,97.79
2019-05-01T03:03:17.126Z,98.36
2019-05-01T03:05:50.273Z,98.08
2019-05-01T03:08:21.917Z,97.51
2019-05-01T03:10:54.628Z,97.44
2019-05-01T03:13:26.426Z,97.55
2019-05-01T03:16:00.614Z,97.70
2019-05-01T03:18:40.516Z,97.72
2019-05-01T03:21:35.622Z,98.23
2019-05-01T03:24:10.732Z,98.26
2019-05-01T03:26:42.822Z,97.53
2019-05-01T03:29:14.987Z,97.40
2019-05-01T03:32:12.875Z,97.23
2019-05-01T03:34:23.546Z,97.79
2019-05-01T03:36:56.789Z,98.26
2019-05-01T03:39:37.872Z,98.52
2019-05-01T03:42:09.200Z,97.86
2019-05-01T03:44:41.579Z,98.67
2019-05-01T03:47:15.284Z,99.03
2019-05-01T03:49:47.157Z,99.17
2019-05-01T03:52:18.218Z,98.37
2019-05-01T03:54:49.158Z,97.92
2019-05-01T03:57:22.237Z,97.79
2019-05-01T03:59:55.343Z,98.66
2019-05-01T04:02:47.376Z,98.88
2019-05-01T04:05:18.062Z,98.84
2019-05-01T04:07:54.467Z,99.08
2019-05-01T04:10:31.101Z,99.14
2019-05-01T04:13:04.176Z,98.87
2019-05-01T04:15:37.351Z,98.69
2019-05-01T04:18:14.084Z,98.48
2019-05-01T04:20:47.464Z,98.84
2019-05-01T04:23:19.657Z,98.38
2019-05-01T04:25:51.319Z,97.82
2019-05-01T04:28:49.848Z,97.57
2019-05-01T04:31:47.108Z,97.67
2019-05-01T04:34:25.494Z,98.64
2019-05-01T04:36:59.862Z,99.09
2019-05-01T04:39:30.833Z,98.95
2019-05-01T04:42:06.688Z,99.24
2019-05-01T04:44:37.508Z,99.08
2019-05-01T04:47:09.541Z,98.97
2019-05-01T04:49:43.978Z,99.09
2019-05-01T04:52:15.520Z,99.37
2019-05-01T04:54:47.737Z,99.23
2019-05-01T04:57:20.441Z,99.19
2019-05-01T04:59:52.780Z,99.70
2019-05-01T05:02:33.360Z,99.52
2019-05-01T05:05:04.611Z,99.25
2019-05-01T05:07:36.926Z,98.96
2019-05-01T05:10:08.818Z,98.80
2019-05-01T05:12:49.918Z,98.91
2019-05-01T05:15:36.723Z,99.04
2019-05-01T05:18:09.790Z,98.96
2019-05-01T05:20:40.486Z,99.00
2019-05-01T05:23:12.570Z,99.00
2019-05-01T05:25:44.581Z,99.03
2019-05-01T05:28:16.070Z,99.13
2019-05-01T05:30:51.553Z,99.31
2019-05-01T05:33:27.687Z,99.82
2019-05-01T05:36:00.444Z,99.92
2019-05-01T05:39:03.536Z,100.00
2019-05-01T05:41:35.600Z,99.86
2019-05-01T05:44:11.257Z,99.60
2019-05-01T05:46:42.328Z,99.35
2019-05-01T05:49:13.101Z,99.20
2019-05-01T05:52:21.990Z,99.07
2019-05-01T05:55:16.075Z,99.02
2019-05-01T05:58:19.029Z,98.94
2019-05-01T06:01:24.411Z,98.75
2019-05-01T06:04:28.653Z,98.49
2019-05-01T06:07:22.198Z,98.16
2019-05-01T06:10:03.604Z,97.64
2019-05-01T06:12:53.215Z,97.69
2019-05-01T06:15:41.084Z,97.52
2019-05-01T06:18:23.428Z,97.35
2019-05-01T06:21:07.288Z,97.20
2019-05-01T06:23:44.722Z,97.36
2019-05-01T06:26:32.098Z,97.37
2019-05-01T06:29:04.945Z,97.19
2019-05-01T06:32:01.960Z,97.09
2019-05-01T06:34:43.076Z,97.08
2019-05-01T06:37:25.419Z,97.25
2019-05-01T06:39:55.607Z,97.47
2019-05-01T06:42:26.391Z,97.51
2019-05-01T06:45:05.501Z,97.83
2019-05-01T06:47:55.205Z,97.75
2019-05-01T06:50:51.004Z,97.65
2019-05-01T06:53:25.302Z,97.40
2019-05-01T06:55:56.523Z,97.16
2019-05-01T06:58:35.667Z,97.19
2019-05-01T07:01:06.610Z,97.36
2019-05-01T07:03:40.815Z,97.28
2019-05-01T07:06:14.380Z,97.17
2019-05-01T07:08:43.361Z,97.06
2019-05-01T07:11:28.831Z,96.99
2019-05-01T07:14:10.824Z,97.21
2019-05-01T07:16:40.541Z,97.08
2019-05-01T07:19:12.030Z,96.78
2019-05-01T07:21:43.503Z,96.55
2019-05-01T07:24:24.130Z,96.33
2019-05-01T07:26:52.889Z,96.18
2019-05-01T07:29:25.413Z,96.20
2019-05-01T07:31:56.448Z,96.18
2019-05-01T07:34:27.447Z,96.06
2019-05-01T07:37:12.761Z,96.17
2019-05-01T07:39:44.794Z,96.12
2019-05-01T07:42:28.349Z,95.89
2019-05-01T07:45:19.672Z,95.78
2019-05-01T07:47:56.565Z,95.66
2019-05-01T07:50:31.612Z,95.43
2019-05-01T07:53:09.365Z,95.17
2019-05-01T07:55:41.096Z,95.08
2019-05-01T07:58:15.972Z,94.87
2019-05-01T08:01:13.244Z,94.11
2019-05-01T08:03:44.772Z,93.61
2019-05-01T08:06:21.446Z,92.94
2019-05-01T08:08:51.193Z,92.71
2019-05-01T08:11:23.339Z,92.67
2019-05-01T08:14:06.594Z,92.35
2019-05-01T08:16:26.681Z,91.91
2019-05-01T08:19:04.266Z,90.91
2019-05-01T08:22:04.073Z,90.25
2019-05-01T08:24:34.864Z,90.08
2019-05-01T08:27:09.252Z,90.13
2019-05-01T08:30:12.702Z,88.56
2019-05-01T08:32:56.553Z,87.42
2019-05-01T08:35:31.742Z,85.48
2019-05-01T08:38:03.081Z,83.83
2019-05-01T08:40:44.096Z,81.64
2019-05-01T08:43:18.120Z,78.53
2019-05-01T08:46:11.871Z,76.89
2019-05-01T08:48:45.468Z,78.21
2019-05-01T08:51:20.933Z,78.97
2019-05-01T08:53:52.727Z,78.95
2019-05-01T08:56:31.174Z,78.75
2019-05-01T08:59:01.727Z,78.19
2019-05-01T09:01:40.821Z,78.16
2019-05-01T09:04:13.145Z,76.86
2019-05-01T09:06:45.185Z,76.03
2019-05-01T09:09:17.527Z,76.15
2019-05-01T09:11:48.127Z,76.00
2019-05-01T09:14:20.095Z,75.21
2019-05-01T09:16:52.492Z,74.68
2019-05-01T09:19:23.208Z,73.21
2019-05-01T09:21:55.219Z,71.19
2019-05-01T09:24:28.032Z,70.27
2019-05-01T09:27:18.548Z,70.67
2019-05-01T09:29:51.550Z,70.11
2019-05-01T09:32:30.447Z,69.46
2019-05-01T09:35:14.601Z,68.75
2019-05-01T09:37:34.418Z,70.33
2019-05-01T09:40:09.146Z,69.12
2019-05-01T09:42:41.622Z,68.10
2019-05-01T09:45:13.195Z,68.72
2019-05-01T09:47:43.952Z,66.79
2019-05-01T09:50:17.331Z,65.61
2019-05-01T09:52:59.827Z,65.94
2019-05-01T09:55:43.046Z,65.01
2019-05-01T09:58:16.466Z,64.55
2019-05-01T10:00:48.756Z,64.43
2019-05-01T10:03:21.094Z,63.96
2019-05-01T10:05:53.044Z,62.59
2019-05-01T10:08:23.871Z,60.82
2019-05-01T10:10:59.906Z,61.28
2019-05-01T10:13:33.589Z,61.89
2019-05-01T10:16:04.173Z,60.46
2019-05-01T10:18:35.975Z,61.08
2019-05-01T10:21:07.768Z,60.12
2019-05-01T10:23:39.691Z,60.47
2019-05-01T10:26:14.318Z,60.76
2019-05-01T10:29:02.932Z,60.50
2019-05-01T10:31:51.242Z,60.78
2019-05-01T10:34:32.110Z,59.97
2019-05-01T10:37:02.857Z,58.79
2019-05-01T10:39:35.744Z,58.56
2019-05-01T10:42:07.676Z,60.28
2019-05-01T10:44:39.724Z,59.08
2019-05-01T10:47:10.380Z,59.54
2019-05-01T10:49:41.144Z,59.90
2019-05-01T10:52:19.549Z,59.60
2019-05-01T10:54:52.857Z,58.73
2019-05-01T10:57:23.549Z,57.38
2019-05-01T10:59:54.290Z,57.80
2019-05-01T11:02:28.477Z,55.72
2019-05-01T11:05:01.123Z,55.68
2019-05-01T11:07:31.950Z,54.59
2019-05-01T11:10:02.604Z,55.14
2019-05-01T11:12:33.280Z,54.93
2019-05-01T11:15:04.042Z,54.63
2019-05-01T11:17:35.966Z,52.79
2019-05-01T11:20:09.718Z,52.77
2019-05-01T11:22:40.350Z,52.30
2019-05-01T11:25:11.380Z,52.54
2019-05-01T11:27:42.133Z,51.04
2019-05-01T11:30:16.018Z,53.24
2019-05-01T11:32:58.862Z,53.12
2019-05-01T11:35:48.581Z,52.68
2019-05-01T11:38:38.650Z,50.58
2019-05-01T11:41:15.676Z,53.23
2019-05-01T11:43:46.398Z,52.19
2019-05-01T11:46:17.125Z,51.77
2019-05-01T11:48:49.117Z,51.89
2019-05-01T11:51:19.865Z,51.86
2019-05-01T11:53:52.612Z,53.08
2019-05-01T11:56:24.221Z,51.27
2019-05-01T11:58:56.133Z,51.23
2019-05-01T12:01:28.184Z,51.80
2019-05-01T12:03:58.852Z,51.15
2019-05-01T12:06:29.641Z,51.28
2019-05-01T12:09:01.544Z,50.65
2019-05-01T12:11:35.310Z,51.88
2019-05-01T12:14:06.505Z,50.81
2019-05-01T12:17:14.291Z,51.43
2019-05-01T12:19:45.019Z,50.81
2019-05-01T12:22:15.670Z,50.42
2019-05-01T12:24:46.242Z,50.62
2019-05-01T12:27:21.912Z,49.38
2019-05-01T12:29:53.682Z,49.89
2019-05-01T12:32:24.486Z,50.30
2019-05-01T12:34:55.209Z,49.76
2019-05-01T12:37:35.891Z,50.00
2019-05-01T12:40:16.403Z,49.33
2019-05-01T12:42:48.431Z,49.50
2019-05-01T12:45:21.030Z,48.91
2019-05-01T12:47:58.102Z,48.87
2019-05-01T12:50:29.094Z,48.16
2019-05-01T12:53:21.800Z,48.96
2019-05-01T12:56:16.035Z,50.65
2019-05-01T12:58:51.019Z,49.28
2019-05-01T13:01:22.795Z,49.61
2019-05-01T13:03:53.618Z,48.15
2019-05-01T13:06:25.526Z,47.56
2019-05-01T13:08:57.529Z,47.19
2019-05-01T13:11:28.302Z,47.26
2019-05-01T13:14:03.952Z,46.58
2019-05-01T13:16:35.928Z,45.99
2019-05-01T13:19:07.823Z,46.44
2019-05-01T13:21:46.278Z,44.53
2019-05-01T13:24:17.143Z,44.82
2019-05-01T13:26:54.982Z,43.93
2019-05-01T13:29:37.065Z,43.30
2019-05-01T13:32:27.808Z,43.44
2019-05-01T13:34:58.646Z,45.95
2019-05-01T13:37:30.460Z,46.81
2019-05-01T13:40:02.590Z,44.04
2019-05-01T13:42:33.522Z,44.64
2019-05-01T13:45:07.943Z,44.21
2019-05-01T13:47:44.487Z,44.36
2019-05-01T13:50:20.815Z,43.57
2019-05-01T13:52:51.617Z,43.25
2019-05-01T13:55:29.366Z,43.33
2019-05-01T13:58:01.298Z,43.60
2019-05-01T14:00:33.051Z,43.46
2019-05-01T14:03:09.920Z,43.19
2019-05-01T14:05:40.948Z,44.35
2019-05-01T14:08:15.856Z,45.59
2019-05-01T14:10:46.460Z,44.35
2019-05-01T14:13:18.651Z,44.83
2019-05-01T14:15:52.461Z,44.53
2019-05-01T14:18:24.484Z,46.17
2019-05-01T14:21:16.289Z,46.32
2019-05-01T14:24:15.218Z,46.47
2019-05-01T14:26:47.026Z,45.82
2019-05-01T14:29:19.048Z,45.37
2019-05-01T14:31:50.922Z,45.28
2019-05-01T14:34:21.740Z,44.53
2019-05-01T14:36:59.382Z,46.12
2019-05-01T14:39:31.369Z,44.59
2019-05-01T14:42:02.044Z,45.05
2019-05-01T14:44:36.968Z,45.43
2019-05-01T14:47:08.090Z,45.57
2019-05-01T14:49:40.864Z,47.17
2019-05-01T14:52:12.763Z,47.30
2019-05-01T14:54:44.483Z,47.13
2019-05-01T14:57:15.521Z,45.88
2019-05-01T14:59:47.524Z,45.86
2019-05-01T15:02:20.199Z,45.67
2019-05-01T15:04:52.679Z,45.50
2019-05-01T15:07:25.385Z,45.62
2019-05-01T15:09:57.387Z,45.07
2019-05-01T15:12:27.964Z,45.09
2019-05-01T15:15:20.012Z,45.67
2019-05-01T15:18:08.742Z,45.33
2019-05-01T15:20:39.718Z,45.96
2019-05-01T15:23:10.369Z,46.55
2019-05-01T15:25:41.192Z,47.99
2019-05-01T15:28:11.844Z,45.43
2019-05-01T15:30:42.588Z,45.37
2019-05-01T15:33:19.495Z,44.97
2019-05-01T15:35:52.667Z,45.03
2019-05-01T15:38:23.371Z,44.88
2019-05-01T15:41:07.809Z,43.13
2019-05-01T15:43:46.548Z,42.85
2019-05-01T15:46:25.546Z,43.75
2019-05-01T15:48:57.411Z,43.25
2019-05-01T15:51:28.282Z,43.13
2019-05-01T15:53:58.922Z,42.91
2019-05-01T15:56:33.437Z,43.10
2019-05-01T15:59:04.178Z,43.95
2019-05-01T16:01:34.853Z,44.59
2019-05-01T16:04:08.166Z,42.47
2019-05-01T16:06:44.930Z,42.03
2019-05-01T16:09:17.502Z,41.68
2019-05-01T16:12:13.198Z,41.54
2019-05-01T16:14:48.186Z,41.71
2019-05-01T16:17:19.025Z,41.25
2019-05-01T16:19:50.921Z,41.05
2019-05-01T16:22:22.989Z,41.18
2019-05-01T16:24:54.967Z,41.10
2019-05-01T16:27:29.366Z,40.82
2019-05-01T16:30:01.220Z,41.45
2019-05-01T16:32:32.045Z,42.18
2019-05-01T16:35:02.764Z,41.65
2019-05-01T16:37:36.940Z,41.52
2019-05-01T16:40:36.924Z,42.17
2019-05-01T16:43:10.287Z,42.88
2019-05-01T16:45:48.606Z,43.32
2019-05-01T16:48:19.373Z,44.39
2019-05-01T16:50:50.166Z,43.92
2019-05-01T16:53:22.213Z,44.48
2019-05-01T16:55:55.809Z,46.29
2019-05-01T16:58:33.348Z,45.55
2019-05-01T17:01:15.508Z,45.56
2019-05-01T17:04:12.125Z,45.66
2019-05-01T17:06:57.646Z,46.03
2019-05-01T17:09:47.048Z,48.07
2019-05-01T17:12:20.376Z,48.50
2019-05-01T17:14:53.696Z,49.31
2019-05-01T17:17:27.065Z,50.74
2019-05-01T17:20:06.565Z,51.84
2019-05-01T17:22:39.347Z,52.38
2019-05-01T17:25:11.191Z,53.68
2019-05-01T17:27:42.051Z,55.13
2019-05-01T17:30:18.446Z,55.17
2019-05-01T17:32:50.124Z,56.18
2019-05-01T17:35:24.024Z,56.72
2019-05-01T17:37:56.537Z,58.50
2019-05-01T17:40:28.458Z,59.26
2019-05-01T17:43:00.177Z,60.09
2019-05-01T17:45:34.784Z,60.27
2019-05-01T17:48:06.831Z,60.84
2019-05-01T17:50:39.037Z,61.32
2019-05-01T17:53:09.977Z,61.71
2019-05-01T17:55:42.245Z,62.19
2019-05-01T17:58:14.520Z,63.62
2019-05-01T18:01:03.123Z,63.93
2019-05-01T18:03:55.885Z,63.36
2019-05-01T18:06:30.701Z,63.57
2019-05-01T18:09:03.531Z,63.87
2019-05-01T18:11:41.645Z,63.53
2019-05-01T18:14:19.640Z,62.89
2019-05-01T18:16:58.205Z,63.69
2019-05-01T18:19:30.969Z,64.14
2019-05-01T18:22:17.570Z,64.17
2019-05-01T18:25:06.304Z,64.76
2019-05-01T18:27:57.396Z,65.12
2019-05-01T18:30:36.934Z,65.40
2019-05-01T18:33:08.010Z,65.87
2019-05-01T18:35:38.904Z,66.32
2019-05-01T18:38:35.729Z,66.50
2019-05-01T18:41:31.180Z,68.11
2019-05-01T18:44:05.338Z,68.46
2019-05-01T18:46:34.602Z,69.05
2019-05-01T18:49:05.541Z,68.91
2019-05-01T18:51:40.707Z,69.47
2019-05-01T18:54:11.227Z,69.63
2019-05-01T18:56:45.292Z,69.51
2019-05-01T18:59:16.292Z,70.16
2019-05-01T19:01:49.839Z,70.80
2019-05-01T19:04:23.483Z,70.50
2019-05-01T19:06:58.929Z,70.83
2019-05-01T19:09:31.024Z,71.01
2019-05-01T19:12:09.579Z,71.34
2019-05-01T19:14:40.328Z,71.50
2019-05-01T19:17:17.228Z,71.45
2019-05-01T19:19:48.358Z,71.83
2019-05-01T19:22:19.675Z,72.50
2019-05-01T19:24:52.582Z,73.15
2019-05-01T19:27:24.681Z,73.52
2019-05-01T19:29:57.909Z,73.52
2019-05-01T19:32:30.185Z,74.20
2019-05-01T19:35:01.342Z,75.16
2019-05-01T19:37:32.048Z,74.98
2019-05-01T19:40:03.119Z,75.21
2019-05-01T19:42:35.116Z,75.78
2019-05-01T19:45:07.777Z,75.95
2019-05-01T19:47:40.247Z,76.04
2019-05-01T19:50:13.330Z,76.22
2019-05-01T19:52:44.313Z,76.54
2019-05-01T19:55:16.749Z,76.69
2019-05-01T19:57:47.806Z,77.91
2019-05-01T20:00:45.836Z,77.88
2019-05-01T20:03:17.834Z,78.03
2019-05-01T20:05:48.679Z,78.26
2019-05-01T20:08:19.793Z,78.11
2019-05-01T20:10:52.972Z,78.12
2019-05-01T20:13:24.853Z,78.60
2019-05-01T20:15:56.977Z,78.36
2019-05-01T20:18:28.016Z,78.31
2019-05-01T20:20:58.824Z,78.53
2019-05-01T20:23:31.363Z,78.76
2019-05-01T20:26:02.645Z,79.11
2019-05-01T20:28:34.553Z,79.33
2019-05-01T20:31:07.929Z,79.22
2019-05-01T20:33:43.933Z,79.29
2019-05-01T20:36:11.682Z,79.76
2019-05-01T20:38:45.860Z,79.66
2019-05-01T20:41:18.086Z,79.65
2019-05-01T20:43:50.209Z,80.10
2019-05-01T20:46:25.323Z,80.71
2019-05-01T20:49:01.390Z,81.00
2019-05-01T20:51:31.425Z,81.15
2019-05-01T20:54:01.987Z,81.66
2019-05-01T20:56:50.027Z,82.08
2019-05-01T20:59:22.210Z,82.37
2019-05-01T21:01:53.111Z,82.27
2019-05-01T21:04:57.744Z,82.97
2019-05-01T21:07:36.596Z,82.62
2019-05-01T21:10:09.821Z,82.81
2019-05-01T21:12:40.661Z,82.85
2019-05-01T21:15:13.262Z,82.53
2019-05-01T21:17:48.795Z,82.29
2019-05-01T21:20:16.891Z,82.07
2019-05-01T21:22:48.986Z,82.08
2019-05-01T21:25:19.648Z,83.14
2019-05-01T21:27:50.338Z,82.63
2019-05-01T21:30:23.745Z,82.51
2019-05-01T21:32:59.011Z,83.45
2019-05-01T21:35:30.527Z,82.98
2019-05-01T21:38:01.530Z,82.99
2019-05-01T21:40:40.394Z,82.80
2019-05-01T21:43:07.092Z,82.89
2019-05-01T21:45:38.998Z,82.58
2019-05-01T21:48:09.833Z,83.18
2019-05-01T21:50:43.747Z,83.62
2019-05-01T21:53:14.167Z,83.59
2019-05-01T21:55:45.991Z,83.34
2019-05-01T21:58:21.124Z,84.06
2019-05-01T22:00:55.103Z,84.18
2019-05-01T22:03:24.848Z,83.94
2019-05-01T22:05:57.621Z,84.26
2019-05-01T22:08:29.567Z,84.74
2019-05-01T22:11:01.731Z,84.29
2019-05-01T22:13:34.002Z,83.97
2019-05-01T22:16:13.433Z,83.99
2019-05-01T22:19:09.076Z,84.15
2019-05-01T22:22:03.418Z,84.32
2019-05-01T22:25:00.812Z,84.47
2019-05-01T22:27:50.451Z,85.25
2019-05-01T22:30:46.194Z,84.72
2019-05-01T22:33:17.013Z,84.90
2019-05-01T22:35:51.654Z,84.79
2019-05-01T22:38:23.636Z,85.12
2019-05-01T22:41:06.614Z,85.38
2019-05-01T22:43:38.692Z,85.52
2019-05-01T22:46:20.268Z,86.08
2019-05-01T22:48:52.591Z,86.83
2019-05-01T22:51:26.376Z,86.75
2019-05-01T22:53:57.109Z,86.47
2019-05-01T22:56:29.144Z,86.90
2019-05-01T22:59:01.028Z,87.22
2019-05-01T23:01:31.826Z,87.74
2019-05-01T23:04:05.180Z,87.51
2019-05-01T23:06:37.084Z,87.20
2019-05-01T23:09:11.261Z,88.46
2019-05-01T23:11:47.413Z,88.32
2019-05-01T23:14:20.551Z,87.86
2019-05-01T23:17:05.171Z,88.24
2019-05-01T23:19:36.016Z,88.44
2019-05-01T23:22:08.947Z,88.18
2019-05-01T23:24:40.824Z,88.43
2019-05-01T23:27:12.777Z,88.75
2019-05-01T23:29:50.944Z,88.81
2019-05-01T23:32:24.941Z,89.10
2019-05-01T23:34:57.225Z,89.14
2019-05-01T23:37:28.221Z,89.23
2019-05-01T23:39:58.756Z,89.60
2019-05-01T23:42:29.435Z,90.55
2019-05-01T23:45:00.415Z,90.75
2019-05-01T23:47:31.170Z,90.13
2019-05-01T23:50:01.757Z,90.46
2019-05-01T23:52:33.962Z,90.49
2019-05-01T23:55:05.565Z,90.23
2019-05-01T23:57:37.542Z,90.26
